sensor_id;sensor_type;location;lat;lon;timestamp;P1;durP1;ratioP1;P2;durP2;ratioP2
19804;SDS011;10062;51.052;13.756;2024-02-28T00:01:48;67.53;;;27.47;;
19804;SDS011;10062;51.052;13.756;2024-02-28T00:04:20;64.47;;;28.70;;
19804;SDS011;10062;51.052;13.756;2024-02-28T00:06:52;63.47;;;27.90;;
19804;SDS011;10062;51.052;13.756;2024-02-28T00:09:24;58.13;;;26.27;;
19804;SDS011;10062;51.052;13.756;2024-02-28T00:11:58;71.50;;;29.03;;
19804;SDS011;10062;51.052;13.756;2024-02-28T00:14:31;74.40;;;28.53;;
19804;SDS011;10062;51.052;13.756;2024-02-28T00:17:03;67.37;;;28.87;;
19804;SDS011;10062;51.052;13.756;2024-02-28T00:19:35;61.80;;;26.23;;
19804;SDS011;10062;51.052;13.756;2024-02-28T00:22:07;67.10;;;25.60;;
19804;SDS011;10062;51.052;13.756;2024-02-28T00:24:40;59.70;;;27.13;;
19804;SDS011;10062;51.052;13.756;2024-02-28T00:27:11;61.50;;;26.63;;
19804;SDS011;10062;51.052;13.756;2024-02-28T00:29:44;58.17;;;25.70;;
19804;SDS011;10062;51.052;13.756;2024-02-28T00:32:16;57.37;;;26.53;;
19804;SDS011;10062;51.052;13.756;2024-02-28T00:34:48;62.47;;;27.50;;
19804;SDS011;10062;51.052;13.756;2024-02-28T00:37:21;63.23;;;27.13;;
19804;SDS011;10062;51.052;13.756;2024-02-28T00:39:53;64.97;;;26.43;;
19804;SDS011;10062;51.052;13.756;2024-02-28T00:42:25;64.07;;;29.07;;
19804;SDS011;10062;51.052;13.756;2024-02-28T00:44:58;67.40;;;28.33;;
19804;SDS011;10062;51.052;13.756;2024-02-28T00:47:30;57.00;;;26.43;;
19804;SDS011;10062;51.052;13.756;2024-02-28T00:50:02;64.93;;;26.30;;
19804;SDS011;10062;51.052;13.756;2024-02-28T00:52:34;65.10;;;25.83;;
19804;SDS011;10062;51.052;13.756;2024-02-28T00:55:06;66.47;;;27.30;;
19804;SDS011;10062;51.052;13.756;2024-02-28T00:57:38;63.60;;;25.20;;
19804;SDS011;10062;51.052;13.756;2024-02-28T01:00:11;57.60;;;24.73;;
19804;SDS011;10062;51.052;13.756;2024-02-28T01:02:43;52.47;;;23.90;;
19804;SDS011;10062;51.052;13.756;2024-02-28T01:05:15;49.00;;;23.37;;
19804;SDS011;10062;51.052;13.756;2024-02-28T01:07:47;55.50;;;24.33;;
19804;SDS011;10062;51.052;13.756;2024-02-28T01:10:19;62.60;;;24.80;;
19804;SDS011;10062;51.052;13.756;2024-02-28T01:12:51;56.60;;;23.03;;
19804;SDS011;10062;51.052;13.756;2024-02-28T01:15:24;65.57;;;23.90;;
19804;SDS011;10062;51.052;13.756;2024-02-28T01:17:56;59.70;;;24.73;;
19804;SDS011;10062;51.052;13.756;2024-02-28T01:20:28;56.90;;;23.80;;
19804;SDS011;10062;51.052;13.756;2024-02-28T01:23:00;55.83;;;25.30;;
19804;SDS011;10062;51.052;13.756;2024-02-28T01:25:32;50.17;;;21.37;;
19804;SDS011;10062;51.052;13.756;2024-02-28T01:28:03;55.27;;;24.53;;
19804;SDS011;10062;51.052;13.756;2024-02-28T01:30:37;55.57;;;21.67;;
19804;SDS011;10062;51.052;13.756;2024-02-28T01:33:09;56.30;;;21.13;;
19804;SDS011;10062;51.052;13.756;2024-02-28T01:35:42;49.93;;;22.83;;
19804;SDS011;10062;51.052;13.756;2024-02-28T01:38:14;53.67;;;22.57;;
19804;SDS011;10062;51.052;13.756;2024-02-28T01:40:46;45.00;;;21.87;;
19804;SDS011;10062;51.052;13.756;2024-02-28T01:43:18;55.87;;;23.20;;
19804;SDS011;10062;51.052;13.756;2024-02-28T01:45:51;51.73;;;22.10;;
19804;SDS011;10062;51.052;13.756;2024-02-28T01:48:23;59.27;;;21.97;;
19804;SDS011;10062;51.052;13.756;2024-02-28T01:50:55;55.67;;;22.57;;
19804;SDS011;10062;51.052;13.756;2024-02-28T01:53:26;50.63;;;22.07;;
19804;SDS011;10062;51.052;13.756;2024-02-28T01:55:58;52.90;;;21.00;;
19804;SDS011;10062;51.052;13.756;2024-02-28T01:58:31;58.03;;;24.70;;
19804;SDS011;10062;51.052;13.756;2024-02-28T02:01:04;63.10;;;24.40;;
19804;SDS011;10062;51.052;13.756;2024-02-28T02:03:37;56.53;;;23.00;;
19804;SDS011;10062;51.052;13.756;2024-02-28T02:06:09;55.40;;;21.23;;
19804;SDS011;10062;51.052;13.756;2024-02-28T02:08:41;54.47;;;23.17;;
19804;SDS011;10062;51.052;13.756;2024-02-28T02:11:14;50.57;;;21.73;;
19804;SDS011;10062;51.052;13.756;2024-02-28T02:13:49;54.37;;;21.67;;
19804;SDS011;10062;51.052;13.756;2024-02-28T02:16:22;49.83;;;20.90;;
19804;SDS011;10062;51.052;13.756;2024-02-28T02:18:56;53.03;;;19.60;;
19804;SDS011;10062;51.052;13.756;2024-02-28T02:21:29;47.33;;;20.60;;
19804;SDS011;10062;51.052;13.756;2024-02-28T02:24:03;49.70;;;21.37;;
19804;SDS011;10062;51.052;13.756;2024-02-28T02:26:35;50.97;;;21.57;;
19804;SDS011;10062;51.052;13.756;2024-02-28T02:29:07;51.53;;;22.93;;
19804;SDS011;10062;51.052;13.756;2024-02-28T02:31:39;58.37;;;21.37;;
19804;SDS011;10062;51.052;13.756;2024-02-28T02:38:03;45.20;;;18.10;;
19804;SDS011;10062;51.052;13.756;2024-02-28T02:40:36;52.93;;;20.57;;
19804;SDS011;10062;51.052;13.756;2024-02-28T02:43:08;53.63;;;20.53;;
19804;SDS011;10062;51.052;13.756;2024-02-28T02:45:40;49.47;;;22.07;;
19804;SDS011;10062;51.052;13.756;2024-02-28T02:48:13;53.47;;;19.87;;
19804;SDS011;10062;51.052;13.756;2024-02-28T02:50:45;52.70;;;19.53;;
19804;SDS011;10062;51.052;13.756;2024-02-28T02:53:17;51.63;;;20.27;;
19804;SDS011;10062;51.052;13.756;2024-02-28T02:55:51;62.00;;;23.20;;
19804;SDS011;10062;51.052;13.756;2024-02-28T02:58:24;55.47;;;21.73;;
19804;SDS011;10062;51.052;13.756;2024-02-28T03:00:55;49.80;;;21.07;;
19804;SDS011;10062;51.052;13.756;2024-02-28T03:03:27;51.07;;;20.47;;
19804;SDS011;10062;51.052;13.756;2024-02-28T03:05:59;58.10;;;21.93;;
19804;SDS011;10062;51.052;13.756;2024-02-28T03:08:31;55.17;;;21.70;;
19804;SDS011;10062;51.052;13.756;2024-02-28T03:11:05;60.07;;;20.30;;
19804;SDS011;10062;51.052;13.756;2024-02-28T03:13:38;50.60;;;21.90;;
19804;SDS011;10062;51.052;13.756;2024-02-28T03:16:10;50.07;;;20.53;;
19804;SDS011;10062;51.052;13.756;2024-02-28T03:18:42;49.80;;;17.67;;
19804;SDS011;10062;51.052;13.756;2024-02-28T03:21:14;46.17;;;19.33;;
19804;SDS011;10062;51.052;13.756;2024-02-28T03:23:47;46.53;;;20.07;;
19804;SDS011;10062;51.052;13.756;2024-02-28T03:26:20;50.93;;;20.53;;
19804;SDS011;10062;51.052;13.756;2024-02-28T03:28:52;53.67;;;20.53;;
19804;SDS011;10062;51.052;13.756;2024-02-28T03:31:24;51.43;;;19.67;;
19804;SDS011;10062;51.052;13.756;2024-02-28T03:33:56;54.53;;;21.60;;
19804;SDS011;10062;51.052;13.756;2024-02-28T03:36:28;51.23;;;20.33;;
19804;SDS011;10062;51.052;13.756;2024-02-28T03:39:00;46.13;;;19.20;;
19804;SDS011;10062;51.052;13.756;2024-02-28T03:41:33;45.93;;;20.63;;
19804;SDS011;10062;51.052;13.756;2024-02-28T03:44:05;49.77;;;19.33;;
19804;SDS011;10062;51.052;13.756;2024-02-28T03:46:36;47.77;;;20.33;;
19804;SDS011;10062;51.052;13.756;2024-02-28T03:49:08;39.00;;;17.20;;
19804;SDS011;10062;51.052;13.756;2024-02-28T03:51:40;45.80;;;18.47;;
19804;SDS011;10062;51.052;13.756;2024-02-28T03:54:12;44.90;;;19.20;;
19804;SDS011;10062;51.052;13.756;2024-02-28T03:56:45;46.63;;;20.47;;
19804;SDS011;10062;51.052;13.756;2024-02-28T03:59:17;48.57;;;19.60;;
19804;SDS011;10062;51.052;13.756;2024-02-28T04:01:49;54.10;;;22.13;;
19804;SDS011;10062;51.052;13.756;2024-02-28T04:04:20;47.63;;;19.20;;
19804;SDS011;10062;51.052;13.756;2024-02-28T04:06:52;47.50;;;18.80;;
19804;SDS011;10062;51.052;13.756;2024-02-28T04:09:25;47.97;;;19.57;;
19804;SDS011;10062;51.052;13.756;2024-02-28T04:11:58;48.07;;;20.27;;
19804;SDS011;10062;51.052;13.756;2024-02-28T04:14:30;49.27;;;20.00;;
19804;SDS011;10062;51.052;13.756;2024-02-28T04:17:02;46.80;;;21.23;;
19804;SDS011;10062;51.052;13.756;2024-02-28T04:19:33;50.53;;;18.70;;
19804;SDS011;10062;51.052;13.756;2024-02-28T04:22:07;48.37;;;20.60;;
19804;SDS011;10062;51.052;13.756;2024-02-28T04:24:39;49.87;;;19.30;;
19804;SDS011;10062;51.052;13.756;2024-02-28T04:27:11;49.37;;;18.50;;
19804;SDS011;10062;51.052;13.756;2024-02-28T04:29:43;46.63;;;17.80;;
19804;SDS011;10062;51.052;13.756;2024-02-28T04:32:15;37.80;;;15.00;;
19804;SDS011;10062;51.052;13.756;2024-02-28T04:34:47;50.67;;;19.23;;
19804;SDS011;10062;51.052;13.756;2024-02-28T04:37:19;41.53;;;16.97;;
19804;SDS011;10062;51.052;13.756;2024-02-28T04:39:50;41.60;;;15.30;;
19804;SDS011;10062;51.052;13.756;2024-02-28T04:42:24;42.70;;;17.53;;
19804;SDS011;10062;51.052;13.756;2024-02-28T04:44:56;40.30;;;17.23;;
19804;SDS011;10062;51.052;13.756;2024-02-28T04:47:27;43.83;;;17.97;;
19804;SDS011;10062;51.052;13.756;2024-02-28T04:49:59;46.73;;;18.40;;
19804;SDS011;10062;51.052;13.756;2024-02-28T04:52:31;48.57;;;19.03;;
19804;SDS011;10062;51.052;13.756;2024-02-28T04:55:03;46.33;;;19.53;;
19804;SDS011;10062;51.052;13.756;2024-02-28T04:57:37;46.17;;;18.20;;
19804;SDS011;10062;51.052;13.756;2024-02-28T05:00:09;43.80;;;16.53;;
19804;SDS011;10062;51.052;13.756;2024-02-28T05:02:41;54.27;;;19.77;;
19804;SDS011;10062;51.052;13.756;2024-02-28T05:05:13;47.40;;;17.23;;
19804;SDS011;10062;51.052;13.756;2024-02-28T05:07:46;42.67;;;15.70;;
19804;SDS011;10062;51.052;13.756;2024-02-28T05:10:18;43.40;;;16.87;;
19804;SDS011;10062;51.052;13.756;2024-02-28T05:12:50;46.60;;;15.00;;
19804;SDS011;10062;51.052;13.756;2024-02-28T05:15:22;50.00;;;16.43;;
19804;SDS011;10062;51.052;13.756;2024-02-28T05:17:54;43.60;;;16.30;;
19804;SDS011;10062;51.052;13.756;2024-02-28T05:20:26;44.87;;;15.67;;
19804;SDS011;10062;51.052;13.756;2024-02-28T05:22:58;48.90;;;16.37;;
19804;SDS011;10062;51.052;13.756;2024-02-28T05:25:30;48.17;;;16.60;;
19804;SDS011;10062;51.052;13.756;2024-02-28T05:28:04;42.93;;;15.40;;
19804;SDS011;10062;51.052;13.756;2024-02-28T05:30:36;43.10;;;15.80;;
19804;SDS011;10062;51.052;13.756;2024-02-28T05:33:07;44.40;;;17.93;;
19804;SDS011;10062;51.052;13.756;2024-02-28T05:35:39;44.67;;;16.03;;
19804;SDS011;10062;51.052;13.756;2024-02-28T05:38:11;41.30;;;14.87;;
19804;SDS011;10062;51.052;13.756;2024-02-28T05:40:43;47.97;;;17.10;;
19804;SDS011;10062;51.052;13.756;2024-02-28T05:43:16;36.70;;;15.10;;
19804;SDS011;10062;51.052;13.756;2024-02-28T05:45:48;43.87;;;15.80;;
19804;SDS011;10062;51.052;13.756;2024-02-28T05:48:20;48.77;;;18.50;;
19804;SDS011;10062;51.052;13.756;2024-02-28T05:50:52;50.57;;;19.63;;
19804;SDS011;10062;51.052;13.756;2024-02-28T05:53:24;43.27;;;17.97;;
19804;SDS011;10062;51.052;13.756;2024-02-28T05:55:57;53.37;;;19.07;;
19804;SDS011;10062;51.052;13.756;2024-02-28T05:58:30;44.70;;;14.53;;
19804;SDS011;10062;51.052;13.756;2024-02-28T06:01:02;42.67;;;15.07;;
19804;SDS011;10062;51.052;13.756;2024-02-28T06:03:34;46.07;;;18.53;;
19804;SDS011;10062;51.052;13.756;2024-02-28T06:06:06;51.80;;;20.03;;
19804;SDS011;10062;51.052;13.756;2024-02-28T06:08:39;43.73;;;17.30;;
19804;SDS011;10062;51.052;13.756;2024-02-28T06:11:11;49.47;;;16.47;;
19804;SDS011;10062;51.052;13.756;2024-02-28T06:13:45;51.93;;;17.30;;
19804;SDS011;10062;51.052;13.756;2024-02-28T06:16:19;54.33;;;17.33;;
19804;SDS011;10062;51.052;13.756;2024-02-28T06:18:51;51.60;;;17.10;;
19804;SDS011;10062;51.052;13.756;2024-02-28T06:21:23;46.13;;;16.43;;
19804;SDS011;10062;51.052;13.756;2024-02-28T06:23:55;47.17;;;17.17;;
19804;SDS011;10062;51.052;13.756;2024-02-28T06:26:29;47.67;;;17.57;;
19804;SDS011;10062;51.052;13.756;2024-02-28T06:29:03;45.33;;;17.53;;
19804;SDS011;10062;51.052;13.756;2024-02-28T06:31:36;40.77;;;15.47;;
19804;SDS011;10062;51.052;13.756;2024-02-28T06:34:08;49.53;;;17.70;;
19804;SDS011;10062;51.052;13.756;2024-02-28T06:36:41;49.23;;;18.73;;
19804;SDS011;10062;51.052;13.756;2024-02-28T06:39:12;54.60;;;18.33;;
19804;SDS011;10062;51.052;13.756;2024-02-28T06:41:45;41.27;;;16.50;;
19804;SDS011;10062;51.052;13.756;2024-02-28T06:44:18;46.70;;;16.73;;
19804;SDS011;10062;51.052;13.756;2024-02-28T06:46:50;43.87;;;18.03;;
19804;SDS011;10062;51.052;13.756;2024-02-28T06:49:22;50.13;;;18.27;;
19804;SDS011;10062;51.052;13.756;2024-02-28T06:51:55;44.00;;;16.23;;
19804;SDS011;10062;51.052;13.756;2024-02-28T06:54:29;55.03;;;18.97;;
19804;SDS011;10062;51.052;13.756;2024-02-28T06:57:02;53.97;;;19.53;;
19804;SDS011;10062;51.052;13.756;2024-02-28T06:59:35;58.63;;;21.13;;
19804;SDS011;10062;51.052;13.756;2024-02-28T07:02:07;55.37;;;20.67;;
19804;SDS011;10062;51.052;13.756;2024-02-28T07:04:39;48.87;;;18.07;;
19804;SDS011;10062;51.052;13.756;2024-02-28T07:07:12;63.10;;;23.70;;
19804;SDS011;10062;51.052;13.756;2024-02-28T07:09:43;71.73;;;23.37;;
19804;SDS011;10062;51.052;13.756;2024-02-28T07:12:15;65.90;;;22.53;;
19804;SDS011;10062;51.052;13.756;2024-02-28T07:14:49;59.73;;;23.57;;
19804;SDS011;10062;51.052;13.756;2024-02-28T07:17:20;64.60;;;22.43;;
19804;SDS011;10062;51.052;13.756;2024-02-28T07:19:52;65.07;;;21.97;;
19804;SDS011;10062;51.052;13.756;2024-02-28T07:22:24;64.53;;;23.60;;
19804;SDS011;10062;51.052;13.756;2024-02-28T07:24:56;56.17;;;21.10;;
19804;SDS011;10062;51.052;13.756;2024-02-28T07:27:28;55.90;;;20.73;;
19804;SDS011;10062;51.052;13.756;2024-02-28T07:30:02;48.33;;;18.10;;
19804;SDS011;10062;51.052;13.756;2024-02-28T07:32:34;41.87;;;16.47;;
19804;SDS011;10062;51.052;13.756;2024-02-28T07:35:07;49.07;;;17.77;;
19804;SDS011;10062;51.052;13.756;2024-02-28T07:37:39;50.37;;;17.87;;
19804;SDS011;10062;51.052;13.756;2024-02-28T07:40:11;41.10;;;17.20;;
19804;SDS011;10062;51.052;13.756;2024-02-28T07:42:43;38.87;;;15.90;;
19804;SDS011;10062;51.052;13.756;2024-02-28T07:45:16;47.47;;;18.03;;
19804;SDS011;10062;51.052;13.756;2024-02-28T07:47:48;39.97;;;17.17;;
19804;SDS011;10062;51.052;13.756;2024-02-28T07:50:20;34.53;;;15.53;;
19804;SDS011;10062;51.052;13.756;2024-02-28T07:52:53;41.57;;;15.40;;
19804;SDS011;10062;51.052;13.756;2024-02-28T07:55:25;35.67;;;13.00;;
19804;SDS011;10062;51.052;13.756;2024-02-28T07:57:57;37.03;;;14.87;;
19804;SDS011;10062;51.052;13.756;2024-02-28T08:00:31;37.67;;;15.03;;
19804;SDS011;10062;51.052;13.756;2024-02-28T08:03:03;34.50;;;15.17;;
19804;SDS011;10062;51.052;13.756;2024-02-28T08:05:35;33.97;;;14.07;;
19804;SDS011;10062;51.052;13.756;2024-02-28T08:08:09;45.23;;;16.73;;
19804;SDS011;10062;51.052;13.756;2024-02-28T08:10:41;33.23;;;14.77;;
19804;SDS011;10062;51.052;13.756;2024-02-28T08:13:15;33.70;;;13.60;;
19804;SDS011;10062;51.052;13.756;2024-02-28T08:15:48;40.77;;;17.53;;
19804;SDS011;10062;51.052;13.756;2024-02-28T08:18:20;39.30;;;16.73;;
19804;SDS011;10062;51.052;13.756;2024-02-28T08:20:52;37.20;;;15.33;;
19804;SDS011;10062;51.052;13.756;2024-02-28T08:23:27;41.30;;;16.77;;
19804;SDS011;10062;51.052;13.756;2024-02-28T08:25:59;44.33;;;17.83;;
19804;SDS011;10062;51.052;13.756;2024-02-28T08:28:31;40.10;;;16.97;;
19804;SDS011;10062;51.052;13.756;2024-02-28T08:31:04;36.13;;;16.37;;
19804;SDS011;10062;51.052;13.756;2024-02-28T08:33:36;45.27;;;18.73;;
19804;SDS011;10062;51.052;13.756;2024-02-28T08:36:08;43.43;;;19.00;;
19804;SDS011;10062;51.052;13.756;2024-02-28T08:38:40;44.67;;;18.10;;
19804;SDS011;10062;51.052;13.756;2024-02-28T08:41:12;54.50;;;18.97;;
19804;SDS011;10062;51.052;13.756;2024-02-28T08:43:44;50.37;;;20.07;;
19804;SDS011;10062;51.052;13.756;2024-02-28T08:46:17;42.80;;;16.07;;
19804;SDS011;10062;51.052;13.756;2024-02-28T08:48:49;39.90;;;15.40;;
19804;SDS011;10062;51.052;13.756;2024-02-28T08:51:21;50.47;;;19.47;;
19804;SDS011;10062;51.052;13.756;2024-02-28T08:53:53;41.80;;;14.90;;
19804;SDS011;10062;51.052;13.756;2024-02-28T08:56:25;40.93;;;16.47;;
19804;SDS011;10062;51.052;13.756;2024-02-28T08:58:57;46.73;;;18.23;;
19804;SDS011;10062;51.052;13.756;2024-02-28T09:01:30;38.67;;;15.50;;
19804;SDS011;10062;51.052;13.756;2024-02-28T09:04:03;40.90;;;16.70;;
19804;SDS011;10062;51.052;13.756;2024-02-28T09:06:35;36.30;;;15.60;;
19804;SDS011;10062;51.052;13.756;2024-02-28T09:09:07;41.20;;;14.90;;
19804;SDS011;10062;51.052;13.756;2024-02-28T09:11:40;39.27;;;14.73;;
19804;SDS011;10062;51.052;13.756;2024-02-28T09:14:11;33.37;;;12.40;;
19804;SDS011;10062;51.052;13.756;2024-02-28T09:16:44;30.30;;;11.57;;
19804;SDS011;10062;51.052;13.756;2024-02-28T09:19:17;31.27;;;14.40;;
19804;SDS011;10062;51.052;13.756;2024-02-28T09:21:49;32.00;;;15.30;;
19804;SDS011;10062;51.052;13.756;2024-02-28T09:24:21;37.60;;;15.87;;
19804;SDS011;10062;51.052;13.756;2024-02-28T09:26:53;36.10;;;15.63;;
19804;SDS011;10062;51.052;13.756;2024-02-28T09:29:24;28.20;;;14.30;;
19804;SDS011;10062;51.052;13.756;2024-02-28T09:31:58;39.37;;;18.60;;
19804;SDS011;10062;51.052;13.756;2024-02-28T09:34:30;34.53;;;16.83;;
19804;SDS011;10062;51.052;13.756;2024-02-28T09:37:02;30.50;;;14.93;;
19804;SDS011;10062;51.052;13.756;2024-02-28T09:39:37;34.47;;;14.60;;
19804;SDS011;10062;51.052;13.756;2024-02-28T09:42:09;35.67;;;16.33;;
19804;SDS011;10062;51.052;13.756;2024-02-28T09:44:43;34.83;;;15.13;;
19804;SDS011;10062;51.052;13.756;2024-02-28T09:47:17;37.57;;;16.87;;
19804;SDS011;10062;51.052;13.756;2024-02-28T09:49:50;34.10;;;13.40;;
19804;SDS011;10062;51.052;13.756;2024-02-28T09:52:22;37.23;;;16.80;;
19804;SDS011;10062;51.052;13.756;2024-02-28T09:54:54;39.83;;;15.63;;
19804;SDS011;10062;51.052;13.756;2024-02-28T09:57:26;31.27;;;13.93;;
19804;SDS011;10062;51.052;13.756;2024-02-28T10:00:00;37.07;;;16.73;;
19804;SDS011;10062;51.052;13.756;2024-02-28T10:02:37;37.93;;;15.20;;
19804;SDS011;10062;51.052;13.756;2024-02-28T10:05:11;34.87;;;15.40;;
19804;SDS011;10062;51.052;13.756;2024-02-28T10:07:43;39.00;;;17.67;;
19804;SDS011;10062;51.052;13.756;2024-02-28T10:10:15;42.33;;;17.40;;
19804;SDS011;10062;51.052;13.756;2024-02-28T10:12:47;34.40;;;16.17;;
19804;SDS011;10062;51.052;13.756;2024-02-28T10:15:20;36.43;;;16.50;;
19804;SDS011;10062;51.052;13.756;2024-02-28T10:17:55;39.90;;;17.67;;
19804;SDS011;10062;51.052;13.756;2024-02-28T10:20:27;37.10;;;17.17;;
19804;SDS011;10062;51.052;13.756;2024-02-28T10:22:59;47.80;;;19.87;;
19804;SDS011;10062;51.052;13.756;2024-02-28T10:25:31;45.33;;;21.17;;
19804;SDS011;10062;51.052;13.756;2024-02-28T10:28:03;45.83;;;19.20;;
19804;SDS011;10062;51.052;13.756;2024-02-28T10:30:38;43.03;;;19.67;;
19804;SDS011;10062;51.052;13.756;2024-02-28T10:33:12;44.73;;;19.07;;
19804;SDS011;10062;51.052;13.756;2024-02-28T10:35:44;46.30;;;18.90;;
19804;SDS011;10062;51.052;13.756;2024-02-28T10:38:16;39.10;;;18.03;;
19804;SDS011;10062;51.052;13.756;2024-02-28T10:40:48;42.23;;;18.07;;
19804;SDS011;10062;51.052;13.756;2024-02-28T10:43:20;40.60;;;19.10;;
19804;SDS011;10062;51.052;13.756;2024-02-28T10:45:53;36.97;;;18.87;;
19804;SDS011;10062;51.052;13.756;2024-02-28T10:48:27;41.13;;;17.70;;
19804;SDS011;10062;51.052;13.756;2024-02-28T10:50:59;42.97;;;19.60;;
19804;SDS011;10062;51.052;13.756;2024-02-28T10:53:35;42.37;;;19.30;;
19804;SDS011;10062;51.052;13.756;2024-02-28T10:56:09;43.20;;;19.57;;
19804;SDS011;10062;51.052;13.756;2024-02-28T10:58:43;43.63;;;20.17;;
19804;SDS011;10062;51.052;13.756;2024-02-28T11:01:22;39.50;;;18.67;;
19804;SDS011;10062;51.052;13.756;2024-02-28T11:03:55;39.07;;;14.80;;
19804;SDS011;10062;51.052;13.756;2024-02-28T11:06:28;38.33;;;17.93;;
19804;SDS011;10062;51.052;13.756;2024-02-28T11:09:00;38.53;;;17.40;;
19804;SDS011;10062;51.052;13.756;2024-02-28T11:11:32;37.27;;;18.00;;
19804;SDS011;10062;51.052;13.756;2024-02-28T11:14:04;36.10;;;17.50;;
19804;SDS011;10062;51.052;13.756;2024-02-28T11:16:35;40.60;;;18.43;;
19804;SDS011;10062;51.052;13.756;2024-02-28T11:19:09;33.70;;;15.63;;
19804;SDS011;10062;51.052;13.756;2024-02-28T11:21:53;32.73;;;16.83;;
19804;SDS011;10062;51.052;13.756;2024-02-28T11:24:28;33.83;;;16.63;;
19804;SDS011;10062;51.052;13.756;2024-02-28T11:27:01;33.67;;;15.83;;
19804;SDS011;10062;51.052;13.756;2024-02-28T11:29:33;36.07;;;17.17;;
19804;SDS011;10062;51.052;13.756;2024-02-28T11:32:05;30.87;;;15.13;;
19804;SDS011;10062;51.052;13.756;2024-02-28T11:34:39;33.73;;;15.70;;
19804;SDS011;10062;51.052;13.756;2024-02-28T11:37:11;33.37;;;15.47;;
19804;SDS011;10062;51.052;13.756;2024-02-28T11:39:46;34.10;;;14.73;;
19804;SDS011;10062;51.052;13.756;2024-02-28T11:42:18;35.13;;;15.57;;
19804;SDS011;10062;51.052;13.756;2024-02-28T11:44:53;29.40;;;13.93;;
19804;SDS011;10062;51.052;13.756;2024-02-28T11:47:25;32.43;;;14.57;;
19804;SDS011;10062;51.052;13.756;2024-02-28T11:49:59;29.83;;;14.73;;
19804;SDS011;10062;51.052;13.756;2024-02-28T11:52:32;32.70;;;14.47;;
19804;SDS011;10062;51.052;13.756;2024-02-28T11:55:05;30.03;;;13.77;;
19804;SDS011;10062;51.052;13.756;2024-02-28T11:57:37;33.13;;;16.30;;
19804;SDS011;10062;51.052;13.756;2024-02-28T12:00:10;30.83;;;14.77;;
19804;SDS011;10062;51.052;13.756;2024-02-28T12:02:42;30.17;;;13.40;;
19804;SDS011;10062;51.052;13.756;2024-02-28T12:05:15;32.07;;;16.53;;
19804;SDS011;10062;51.052;13.756;2024-02-28T12:07:47;37.10;;;15.97;;
19804;SDS011;10062;51.052;13.756;2024-02-28T12:10:19;33.70;;;15.37;;
19804;SDS011;10062;51.052;13.756;2024-02-28T12:12:51;33.70;;;14.23;;
19804;SDS011;10062;51.052;13.756;2024-02-28T12:15:23;37.87;;;16.97;;
19804;SDS011;10062;51.052;13.756;2024-02-28T12:17:55;37.33;;;17.07;;
19804;SDS011;10062;51.052;13.756;2024-02-28T12:20:29;36.20;;;15.00;;
19804;SDS011;10062;51.052;13.756;2024-02-28T12:23:01;35.43;;;14.50;;
19804;SDS011;10062;51.052;13.756;2024-02-28T12:25:33;38.07;;;16.83;;
19804;SDS011;10062;51.052;13.756;2024-02-28T12:28:06;34.50;;;14.97;;
19804;SDS011;10062;51.052;13.756;2024-02-28T12:30:39;37.07;;;17.43;;
19804;SDS011;10062;51.052;13.756;2024-02-28T12:33:12;30.60;;;15.43;;
19804;SDS011;10062;51.052;13.756;2024-02-28T12:35:45;31.70;;;16.07;;
19804;SDS011;10062;51.052;13.756;2024-02-28T12:38:17;36.27;;;17.67;;
19804;SDS011;10062;51.052;13.756;2024-02-28T12:40:50;34.77;;;17.00;;
19804;SDS011;10062;51.052;13.756;2024-02-28T12:43:22;36.43;;;19.10;;
19804;SDS011;10062;51.052;13.756;2024-02-28T12:45:55;37.27;;;17.50;;
19804;SDS011;10062;51.052;13.756;2024-02-28T12:48:27;37.20;;;18.40;;
19804;SDS011;10062;51.052;13.756;2024-02-28T12:51:01;32.93;;;16.87;;
19804;SDS011;10062;51.052;13.756;2024-02-28T12:53:33;36.60;;;17.90;;
19804;SDS011;10062;51.052;13.756;2024-02-28T12:56:04;38.10;;;17.20;;
19804;SDS011;10062;51.052;13.756;2024-02-28T12:58:36;39.47;;;18.30;;
19804;SDS011;10062;51.052;13.756;2024-02-28T13:01:08;38.90;;;19.50;;
19804;SDS011;10062;51.052;13.756;2024-02-28T13:03:40;39.20;;;17.47;;
19804;SDS011;10062;51.052;13.756;2024-02-28T13:06:14;40.53;;;18.20;;
19804;SDS011;10062;51.052;13.756;2024-02-28T13:08:46;36.53;;;16.20;;
19804;SDS011;10062;51.052;13.756;2024-02-28T13:11:22;38.17;;;16.93;;
19804;SDS011;10062;51.052;13.756;2024-02-28T13:13:54;36.80;;;18.23;;
19804;SDS011;10062;51.052;13.756;2024-02-28T13:16:26;37.50;;;18.13;;
19804;SDS011;10062;51.052;13.756;2024-02-28T13:18:57;36.73;;;16.10;;
19804;SDS011;10062;51.052;13.756;2024-02-28T13:21:31;37.23;;;18.87;;
19804;SDS011;10062;51.052;13.756;2024-02-28T13:24:04;35.63;;;18.20;;
19804;SDS011;10062;51.052;13.756;2024-02-28T13:26:36;33.30;;;16.60;;
19804;SDS011;10062;51.052;13.756;2024-02-28T13:29:08;33.23;;;17.00;;
19804;SDS011;10062;51.052;13.756;2024-02-28T13:31:40;31.30;;;14.70;;
19804;SDS011;10062;51.052;13.756;2024-02-28T13:34:12;32.23;;;16.40;;
19804;SDS011;10062;51.052;13.756;2024-02-28T13:36:46;31.50;;;16.10;;
19804;SDS011;10062;51.052;13.756;2024-02-28T13:39:17;32.37;;;16.37;;
19804;SDS011;10062;51.052;13.756;2024-02-28T13:41:49;33.13;;;16.63;;
19804;SDS011;10062;51.052;13.756;2024-02-28T13:44:22;31.27;;;17.50;;
19804;SDS011;10062;51.052;13.756;2024-02-28T13:46:54;30.80;;;15.83;;
19804;SDS011;10062;51.052;13.756;2024-02-28T13:49:25;29.60;;;16.77;;
19804;SDS011;10062;51.052;13.756;2024-02-28T13:51:59;33.77;;;18.57;;
19804;SDS011;10062;51.052;13.756;2024-02-28T13:54:31;33.50;;;17.00;;
19804;SDS011;10062;51.052;13.756;2024-02-28T13:57:04;38.17;;;18.80;;
19804;SDS011;10062;51.052;13.756;2024-02-28T13:59:36;33.60;;;19.00;;
19804;SDS011;10062;51.052;13.756;2024-02-28T14:02:08;35.07;;;19.07;;
19804;SDS011;10062;51.052;13.756;2024-02-28T14:04:42;32.47;;;16.50;;
19804;SDS011;10062;51.052;13.756;2024-02-28T14:07:20;32.67;;;17.60;;
19804;SDS011;10062;51.052;13.756;2024-02-28T14:09:52;35.97;;;17.97;;
19804;SDS011;10062;51.052;13.756;2024-02-28T14:12:24;34.00;;;19.63;;
19804;SDS011;10062;51.052;13.756;2024-02-28T14:14:56;31.30;;;17.33;;
19804;SDS011;10062;51.052;13.756;2024-02-28T14:17:28;32.40;;;18.90;;
19804;SDS011;10062;51.052;13.756;2024-02-28T14:20:00;36.03;;;19.07;;
19804;SDS011;10062;51.052;13.756;2024-02-28T14:22:33;33.80;;;18.43;;
19804;SDS011;10062;51.052;13.756;2024-02-28T14:25:05;33.83;;;19.60;;
19804;SDS011;10062;51.052;13.756;2024-02-28T14:27:37;34.03;;;18.63;;
19804;SDS011;10062;51.052;13.756;2024-02-28T14:30:09;34.40;;;18.40;;
19804;SDS011;10062;51.052;13.756;2024-02-28T14:32:42;30.30;;;19.23;;
19804;SDS011;10062;51.052;13.756;2024-02-28T14:35:14;29.73;;;16.63;;
19804;SDS011;10062;51.052;13.756;2024-02-28T14:37:47;29.27;;;17.43;;
19804;SDS011;10062;51.052;13.756;2024-02-28T14:40:22;38.93;;;22.77;;
19804;SDS011;10062;51.052;13.756;2024-02-28T14:42:53;33.10;;;19.10;;